createdAt,value
2022-11-23T00:00:41.005Z,2.00
2022-11-23T00:03:08.111Z,2.23
2022-11-23T00:05:34.762Z,2.00
2022-11-23T00:08:01.445Z,2.27
2022-11-23T00:10:28.543Z,2.20
2022-11-23T00:12:55.616Z,2.17
2022-11-23T00:15:22.671Z,1.70
2022-11-23T00:17:49.734Z,2.00
2022-11-23T00:20:17.012Z,2.00
2022-11-23T00:22:43.735Z,1.77
2022-11-23T00:25:10.478Z,1.70
2022-11-23T00:27:37.220Z,2.00
2022-11-23T00:30:05.006Z,1.83
2022-11-23T00:32:31.795Z,1.70
2022-11-23T00:37:27.241Z,1.77
2022-11-23T00:39:53.902Z,1.70
2022-11-23T00:42:20.972Z,1.83
2022-11-23T00:44:48.020Z,1.67
2022-11-23T00:47:14.682Z,1.60
2022-11-23T00:49:41.761Z,2.10
2022-11-23T00:52:08.421Z,2.00
2022-11-23T00:54:35.502Z,1.50
2022-11-23T00:57:02.600Z,1.70
2022-11-23T00:59:29.859Z,1.80
2022-11-23T01:01:56.930Z,1.73
2022-11-23T01:04:23.647Z,1.70
2022-11-23T01:06:50.741Z,1.90
2022-11-23T01:09:18.699Z,1.73
2022-11-23T01:11:45.914Z,1.90
2022-11-23T01:14:13.166Z,1.83
2022-11-23T01:16:40.654Z,1.77
2022-11-23T01:19:18.962Z,1.80
2022-11-23T01:21:45.673Z,1.80
2022-11-23T01:24:19.063Z,2.07
2022-11-23T01:26:46.412Z,1.87
2022-11-23T01:29:13.537Z,1.77
2022-11-23T01:31:46.722Z,1.80
2022-11-23T01:34:18.544Z,1.60
2022-11-23T01:36:45.805Z,1.60
2022-11-23T01:39:13.329Z,1.43
2022-11-23T01:41:41.899Z,1.73
2022-11-23T01:44:33.550Z,1.80
2022-11-23T01:47:02.417Z,1.63
2022-11-23T01:49:34.573Z,1.77
2022-11-23T01:52:06.951Z,1.67
2022-11-23T01:54:54.158Z,1.83
2022-11-23T01:57:25.760Z,1.80
2022-11-23T01:59:54.402Z,1.70
2022-11-23T02:02:21.064Z,1.90
2022-11-23T02:04:52.117Z,1.77
2022-11-23T02:07:19.570Z,1.70
2022-11-23T02:09:47.167Z,1.90
2022-11-23T02:12:14.687Z,1.60
2022-11-23T02:14:42.154Z,1.77
2022-11-23T02:17:09.491Z,1.67
2022-11-23T02:20:01.116Z,1.70
2022-11-23T02:23:06.424Z,1.57
2022-11-23T02:25:45.420Z,2.00
2022-11-23T02:28:28.930Z,1.70
2022-11-23T02:30:56.138Z,1.87
2022-11-23T02:33:23.143Z,2.00
2022-11-23T02:35:51.973Z,2.00
2022-11-23T02:38:20.131Z,1.90
2022-11-23T02:40:47.260Z,1.90
2022-11-23T02:43:14.789Z,1.90
2022-11-23T02:45:51.584Z,2.00
2022-11-23T02:48:18.981Z,1.60
2022-11-23T02:50:46.344Z,1.77
2022-11-23T02:53:13.605Z,1.80
2022-11-23T02:55:40.292Z,1.80
2022-11-23T02:58:07.684Z,1.73
2022-11-23T03:00:35.247Z,1.63
2022-11-23T03:03:03.242Z,2.13
2022-11-23T03:05:30.564Z,1.80
2022-11-23T03:07:57.560Z,1.70
2022-11-23T03:10:24.498Z,1.70
2022-11-23T03:12:54.433Z,1.90
2022-11-23T03:15:21.508Z,1.93
2022-11-23T03:17:48.179Z,1.70
2022-11-23T03:20:15.359Z,1.60
2022-11-23T03:22:42.164Z,1.63
2022-11-23T03:25:09.051Z,2.10
2022-11-23T03:27:36.177Z,1.70
2022-11-23T03:30:02.928Z,1.80
2022-11-23T03:32:29.561Z,1.90
2022-11-23T03:34:56.627Z,1.60
2022-11-23T03:37:24.269Z,1.80
2022-11-23T03:39:51.009Z,1.70
2022-11-23T03:42:18.105Z,1.80
2022-11-23T03:44:44.824Z,1.93
2022-11-23T03:47:12.055Z,1.90
2022-11-23T03:49:39.127Z,1.90
2022-11-23T03:52:05.856Z,1.90
2022-11-23T03:54:32.951Z,1.90
2022-11-23T03:57:00.229Z,1.90
2022-11-23T03:59:26.910Z,1.73
2022-11-23T04:01:53.594Z,1.90
2022-11-23T04:04:21.070Z,2.00
2022-11-23T04:06:47.710Z,1.80
2022-11-23T04:09:14.479Z,2.30
2022-11-23T04:11:41.630Z,2.17
2022-11-23T04:14:08.271Z,2.10
2022-11-23T04:16:34.922Z,1.83
2022-11-23T04:19:02.015Z,2.00
2022-11-23T04:21:28.764Z,2.00
2022-11-23T04:23:55.410Z,2.00
2022-11-23T04:26:22.502Z,1.83
2022-11-23T04:28:49.323Z,2.43
2022-11-23T04:31:16.361Z,2.13
2022-11-23T04:33:43.128Z,2.10
2022-11-23T04:36:09.864Z,2.20
2022-11-23T04:38:37.065Z,2.10
2022-11-23T04:41:03.810Z,2.30
2022-11-23T04:43:31.873Z,2.00
2022-11-23T04:45:58.971Z,1.80
2022-11-23T04:48:25.634Z,2.13
2022-11-23T04:50:55.578Z,1.70
2022-11-23T04:53:22.523Z,2.07
2022-11-23T04:55:49.631Z,2.20
2022-11-23T04:58:16.811Z,2.00
2022-11-23T05:00:43.907Z,2.20
2022-11-23T05:03:10.686Z,1.80
2022-11-23T05:05:39.068Z,2.20
2022-11-23T05:08:06.256Z,2.00
2022-11-23T05:10:33.408Z,1.90
2022-11-23T05:13:00.624Z,1.83
2022-11-23T05:15:27.758Z,1.87
2022-11-23T05:17:58.966Z,2.00
2022-11-23T05:20:25.855Z,2.00
2022-11-23T05:22:52.980Z,2.13
2022-11-23T05:25:20.086Z,1.93
2022-11-23T05:27:46.727Z,2.20
2022-11-23T05:30:13.951Z,1.93
2022-11-23T05:32:41.427Z,2.40
2022-11-23T05:35:08.619Z,2.27
2022-11-23T05:37:35.667Z,2.00
2022-11-23T05:40:02.796Z,2.00
2022-11-23T05:42:29.546Z,2.70
2022-11-23T05:44:56.251Z,1.87
2022-11-23T05:47:22.915Z,2.00
2022-11-23T05:49:50.474Z,1.80
2022-11-23T05:52:17.889Z,3.10
2022-11-23T05:54:45.031Z,3.47
2022-11-23T05:57:12.169Z,2.50
2022-11-23T05:59:39.266Z,2.37
2022-11-23T06:02:06.358Z,2.10
2022-11-23T06:04:33.035Z,1.57
2022-11-23T06:07:01.147Z,2.53
2022-11-23T06:09:28.495Z,2.40
2022-11-23T06:11:55.567Z,2.23
2022-11-23T06:14:22.662Z,2.47
2022-11-23T06:16:50.528Z,3.40
2022-11-23T06:19:17.256Z,2.93
2022-11-23T06:21:49.014Z,2.80
2022-11-23T06:24:17.038Z,4.50
2022-11-23T06:26:44.163Z,6.87
2022-11-23T06:29:11.288Z,7.47
2022-11-23T06:31:38.364Z,6.63
2022-11-23T06:34:05.415Z,5.37
2022-11-23T06:36:32.158Z,10.27
2022-11-23T06:38:59.039Z,5.97
2022-11-23T06:41:29.523Z,7.53
2022-11-23T06:43:59.334Z,11.07
2022-11-23T06:46:26.197Z,7.47
2022-11-23T06:48:56.657Z,7.17
2022-11-23T06:51:23.862Z,8.13
2022-11-23T06:53:50.572Z,6.13
2022-11-23T06:56:17.704Z,7.53
2022-11-23T06:58:44.339Z,11.47
2022-11-23T07:01:11.513Z,11.63
2022-11-23T07:03:38.745Z,12.10
2022-11-23T07:06:09.967Z,6.03
2022-11-23T07:08:39.863Z,4.03
2022-11-23T07:11:07.099Z,3.87
2022-11-23T07:13:33.794Z,3.80
2022-11-23T07:16:00.840Z,3.23
2022-11-23T07:18:27.661Z,3.70
2022-11-23T07:20:54.389Z,2.60
2022-11-23T07:23:21.467Z,3.43
2022-11-23T07:25:48.211Z,2.90
2022-11-23T07:28:15.381Z,2.57
2022-11-23T07:30:42.510Z,2.33
2022-11-23T07:33:11.590Z,2.90
2022-11-23T07:35:40.309Z,2.30
2022-11-23T07:38:10.239Z,2.43
2022-11-23T07:40:38.314Z,2.40
2022-11-23T07:43:06.349Z,2.40
2022-11-23T07:45:34.118Z,2.60
2022-11-23T07:48:07.435Z,2.90
2022-11-23T07:50:40.170Z,2.50
2022-11-23T07:53:07.336Z,2.70
2022-11-23T07:55:34.755Z,2.20
2022-11-23T07:58:01.507Z,2.50
2022-11-23T08:00:29.150Z,2.90
2022-11-23T08:03:26.134Z,3.00
2022-11-23T08:05:45.255Z,2.50
2022-11-23T08:08:12.034Z,2.87
2022-11-23T08:10:45.130Z,2.93
2022-11-23T08:13:14.054Z,2.70
2022-11-23T08:15:40.713Z,2.63
2022-11-23T08:18:07.766Z,2.63
2022-11-23T08:20:34.839Z,2.80
2022-11-23T08:23:01.920Z,3.20
2022-11-23T08:25:29.580Z,3.00
2022-11-23T08:28:01.561Z,3.30
2022-11-23T08:30:29.641Z,3.07
2022-11-23T08:32:56.477Z,2.87
2022-11-23T08:35:23.188Z,2.83
2022-11-23T08:37:50.488Z,3.23
2022-11-23T08:40:22.120Z,2.63
2022-11-23T08:42:51.626Z,2.90
2022-11-23T08:45:18.666Z,2.70
2022-11-23T08:47:45.377Z,2.63
2022-11-23T08:50:12.126Z,3.03
2022-11-23T08:52:38.759Z,2.50
2022-11-23T08:55:05.833Z,2.93
2022-11-23T08:57:32.951Z,2.53
2022-11-23T09:00:00.088Z,2.43
2022-11-23T09:02:27.217Z,2.60
2022-11-23T09:04:53.954Z,2.50
2022-11-23T09:07:21.075Z,2.73
2022-11-23T09:09:47.882Z,2.77
2022-11-23T09:12:14.548Z,3.03
2022-11-23T09:14:41.648Z,2.67
2022-11-23T09:17:08.392Z,2.67
2022-11-23T09:19:35.503Z,2.60
2022-11-23T09:22:02.146Z,2.97
2022-11-23T09:24:28.928Z,2.40
2022-11-23T09:26:56.335Z,2.97
2022-11-23T09:29:25.358Z,3.43
2022-11-23T09:31:52.862Z,3.77
2022-11-23T09:34:19.639Z,2.97
2022-11-23T09:36:46.819Z,2.97
2022-11-23T09:39:13.473Z,2.70
2022-11-23T09:41:58.814Z,2.87
2022-11-23T09:44:44.618Z,3.00
2022-11-23T09:47:46.925Z,2.80
2022-11-23T09:50:40.482Z,3.00
2022-11-23T09:53:13.972Z,3.10
2022-11-23T09:55:47.135Z,2.73
2022-11-23T09:58:17.317Z,2.47
2022-11-23T10:00:52.502Z,2.50
2022-11-23T10:03:19.680Z,2.57
2022-11-23T10:06:18.242Z,2.40
2022-11-23T10:08:46.057Z,2.73
2022-11-23T10:11:27.748Z,2.47
2022-11-23T10:14:03.201Z,2.53
2022-11-23T10:16:44.382Z,2.50
2022-11-23T10:19:26.854Z,2.63
2022-11-23T10:22:15.788Z,2.10
2022-11-23T10:24:50.309Z,2.33
2022-11-23T10:27:19.527Z,2.27
2022-11-23T10:29:46.757Z,2.50
2022-11-23T10:32:34.000Z,2.83
2022-11-23T10:35:13.905Z,2.43
2022-11-23T10:37:41.302Z,2.10
2022-11-23T10:40:21.916Z,2.40
2022-11-23T10:43:01.615Z,2.60
2022-11-23T10:45:29.518Z,2.70
2022-11-23T10:48:00.402Z,3.00
2022-11-23T10:50:30.031Z,2.43
2022-11-23T10:53:22.407Z,2.00
2022-11-23T10:56:00.031Z,2.20
2022-11-23T10:58:27.153Z,2.23
2022-11-23T11:01:02.261Z,2.20
2022-11-23T11:03:33.179Z,2.13
2022-11-23T11:06:09.893Z,2.63
2022-11-23T11:09:05.111Z,2.40
2022-11-23T11:11:38.592Z,2.40
2022-11-23T11:14:17.256Z,2.40
2022-11-23T11:17:00.430Z,2.77
2022-11-23T11:19:30.179Z,2.13
2022-11-23T11:21:58.036Z,2.63
2022-11-23T11:24:31.285Z,2.30
2022-11-23T11:27:01.308Z,2.27
2022-11-23T11:29:46.952Z,2.10
2022-11-23T11:32:30.062Z,2.60
2022-11-23T11:34:57.075Z,2.50
2022-11-23T11:37:37.542Z,2.07
2022-11-23T11:40:37.944Z,2.30
2022-11-23T11:43:15.897Z,2.07
2022-11-23T11:46:13.217Z,2.20
2022-11-23T11:48:46.142Z,2.53
2022-11-23T11:51:32.424Z,2.30
2022-11-23T11:54:05.905Z,2.30
2022-11-23T11:56:42.688Z,2.30
2022-11-23T11:59:09.862Z,2.43
2022-11-23T12:01:51.314Z,2.33
2022-11-23T12:04:35.266Z,2.10
2022-11-23T12:07:09.377Z,2.80
2022-11-23T12:09:41.054Z,2.37
2022-11-23T12:12:17.417Z,2.33
2022-11-23T12:14:46.676Z,2.80
2022-11-23T12:17:57.485Z,2.50
2022-11-23T12:20:39.989Z,3.00
2022-11-23T12:23:27.773Z,2.97
2022-11-23T12:26:12.498Z,2.30
2022-11-23T12:29:27.148Z,2.23
2022-11-23T12:32:16.941Z,2.20
2022-11-23T12:34:49.565Z,2.13
2022-11-23T12:37:34.312Z,2.20
2022-11-23T12:40:29.725Z,2.00
2022-11-23T12:43:21.141Z,2.10
2022-11-23T12:46:03.657Z,2.23
2022-11-23T12:48:38.285Z,2.20
2022-11-23T12:51:14.138Z,2.40
2022-11-23T12:54:02.514Z,2.03
2022-11-23T12:56:29.169Z,2.80
2022-11-23T12:58:58.006Z,1.70
2022-11-23T13:01:35.161Z,2.10
2022-11-23T13:04:10.771Z,2.00
2022-11-23T13:09:57.664Z,1.87
2022-11-23T13:12:43.230Z,2.13
2022-11-23T13:15:25.180Z,2.30
2022-11-23T13:18:16.648Z,2.40
2022-11-23T13:21:07.500Z,2.20
2022-11-23T13:23:38.975Z,2.37
2022-11-23T13:26:23.924Z,2.97
2022-11-23T13:28:52.785Z,2.20
2022-11-23T13:31:31.283Z,2.80
2022-11-23T13:34:01.194Z,2.57
2022-11-23T13:36:56.248Z,2.80
2022-11-23T13:39:39.487Z,2.57
2022-11-23T13:42:06.282Z,2.50
2022-11-23T13:44:33.622Z,2.20
2022-11-23T13:47:04.215Z,2.60
2022-11-23T13:49:42.610Z,2.87
2022-11-23T13:52:21.288Z,2.40
2022-11-23T13:55:13.994Z,2.17
2022-11-23T13:57:43.330Z,2.47
2022-11-23T14:00:47.913Z,2.10
2022-11-23T14:03:42.692Z,2.30
2022-11-23T14:06:37.803Z,2.20
2022-11-23T14:09:45.568Z,2.10
2022-11-23T14:12:12.312Z,2.43
2022-11-23T14:14:45.063Z,2.50
2022-11-23T14:17:36.270Z,2.27
2022-11-23T14:20:30.684Z,2.50
2022-11-23T14:23:34.854Z,2.67
2022-11-23T14:26:01.889Z,2.23
2022-11-23T14:28:52.478Z,2.10
2022-11-23T14:31:31.405Z,3.30
2022-11-23T14:34:13.456Z,2.27
2022-11-23T14:36:40.541Z,2.17
2022-11-23T14:39:48.481Z,2.23
2022-11-23T14:42:19.085Z,2.03
2022-11-23T14:44:46.178Z,2.40
2022-11-23T14:47:13.275Z,2.60
2022-11-23T14:49:51.016Z,2.13
2022-11-23T14:52:24.547Z,2.10
2022-11-23T14:54:53.484Z,2.17
2022-11-23T14:57:22.968Z,2.10
2022-11-23T14:59:54.799Z,2.30
2022-11-23T15:02:25.831Z,1.97
2022-11-23T15:05:02.949Z,2.00
2022-11-23T15:07:50.922Z,2.30
2022-11-23T15:10:46.886Z,2.37
2022-11-23T15:13:25.152Z,2.63
2022-11-23T15:15:55.089Z,2.50
2022-11-23T15:18:29.116Z,2.30
2022-11-23T15:21:00.842Z,2.33
2022-11-23T15:23:33.594Z,2.33
2022-11-23T15:26:02.627Z,2.70
2022-11-23T15:28:31.815Z,2.40
2022-11-23T15:30:59.178Z,2.43
2022-11-23T15:33:26.571Z,2.43
2022-11-23T15:35:54.798Z,2.10
2022-11-23T15:38:23.941Z,2.90
2022-11-23T15:40:51.193Z,2.70
2022-11-23T15:43:19.893Z,2.60
2022-11-23T15:45:47.067Z,2.57
2022-11-23T15:48:23.085Z,2.80
2022-11-23T15:50:55.023Z,2.80
2022-11-23T15:53:26.693Z,2.50
2022-11-23T15:55:57.124Z,2.47
2022-11-23T15:58:24.236Z,2.90
2022-11-23T16:00:55.855Z,2.73
2022-11-23T16:03:52.393Z,2.77
2022-11-23T16:06:24.666Z,2.90
2022-11-23T16:08:51.792Z,3.30
2022-11-23T16:11:19.796Z,3.00
2022-11-23T16:13:46.910Z,3.00
2022-11-23T16:16:21.222Z,3.70
2022-11-23T16:18:56.780Z,3.20
2022-11-23T16:21:25.469Z,3.23
2022-11-23T16:23:56.495Z,3.20
2022-11-23T16:26:33.990Z,3.43
2022-11-23T16:29:01.286Z,3.13
2022-11-23T16:31:31.039Z,4.10
2022-11-23T16:33:57.700Z,3.37
2022-11-23T16:36:27.579Z,3.60
2022-11-23T16:38:57.613Z,3.47
2022-11-23T16:41:26.781Z,3.20
2022-11-23T16:43:54.152Z,4.13
2022-11-23T16:46:21.584Z,4.20
2022-11-23T16:48:48.383Z,4.03
2022-11-23T16:51:15.882Z,3.90
2022-11-23T16:54:12.073Z,3.80
2022-11-23T16:56:32.885Z,4.10
2022-11-23T16:59:00.092Z,4.50
2022-11-23T17:01:29.636Z,4.23
2022-11-23T17:03:56.429Z,4.30
2022-11-23T17:06:23.341Z,4.47
2022-11-23T17:08:59.281Z,3.37
2022-11-23T17:11:28.381Z,3.30
2022-11-23T17:13:56.360Z,4.37
2022-11-23T17:16:25.545Z,3.40
2022-11-23T17:18:52.727Z,3.70
2022-11-23T17:21:19.920Z,3.40
2022-11-23T17:23:47.045Z,3.67
2022-11-23T17:26:37.249Z,3.47
2022-11-23T17:29:06.766Z,3.00
2022-11-23T17:31:33.726Z,3.30
2022-11-23T17:34:00.861Z,3.37
2022-11-23T17:36:28.961Z,3.10
2022-11-23T17:38:56.084Z,2.80
2022-11-23T17:41:22.835Z,2.80
2022-11-23T17:43:49.920Z,3.00
2022-11-23T17:46:24.112Z,3.30
2022-11-23T17:48:55.349Z,3.53
2022-11-23T17:51:22.414Z,3.07
2022-11-23T17:53:49.541Z,3.60
2022-11-23T17:56:23.108Z,4.27
2022-11-23T17:58:50.771Z,3.43
2022-11-23T18:01:19.461Z,3.17
2022-11-23T18:03:46.809Z,3.13
2022-11-23T18:06:15.665Z,3.90
2022-11-23T18:08:43.936Z,3.90
2022-11-23T18:11:11.457Z,3.43
2022-11-23T18:13:38.870Z,3.40
2022-11-23T18:16:06.841Z,3.70
2022-11-23T18:18:33.781Z,3.43
2022-11-23T18:21:01.073Z,3.00
2022-11-23T18:23:28.476Z,3.00
2022-11-23T18:26:00.484Z,3.40
2022-11-23T18:28:27.730Z,2.60
2022-11-23T18:30:55.004Z,3.10
2022-11-23T18:33:23.768Z,3.13
2022-11-23T18:35:50.789Z,2.70
2022-11-23T18:38:17.859Z,3.10
2022-11-23T18:40:44.660Z,3.30
2022-11-23T18:43:11.730Z,3.20
2022-11-23T18:45:38.858Z,3.00
2022-11-23T18:48:07.826Z,3.30
2022-11-23T18:50:35.531Z,3.97
2022-11-23T18:53:02.692Z,3.50
2022-11-23T18:55:29.435Z,3.67
2022-11-23T18:57:56.369Z,4.23
2022-11-23T19:00:23.390Z,3.47
2022-11-23T19:02:54.578Z,3.87
2022-11-23T19:05:21.827Z,3.60
2022-11-23T19:07:49.073Z,3.53
2022-11-23T19:10:16.432Z,3.73
2022-11-23T19:12:43.686Z,3.37
2022-11-23T19:15:11.304Z,3.33
2022-11-23T19:17:38.569Z,3.70
2022-11-23T19:20:08.248Z,3.27
2022-11-23T19:22:35.877Z,3.90
2022-11-23T19:25:02.901Z,3.60
2022-11-23T19:27:31.158Z,3.83
2022-11-23T19:29:58.203Z,3.83
2022-11-23T19:32:25.315Z,3.97
2022-11-23T19:34:52.008Z,4.20
2022-11-23T19:37:18.687Z,3.77
2022-11-23T19:39:46.813Z,4.00
2022-11-23T19:42:13.891Z,4.27
2022-11-23T19:44:40.623Z,4.57
2022-11-23T19:47:13.230Z,4.80
2022-11-23T19:49:41.234Z,3.67
2022-11-23T19:52:08.301Z,3.83
2022-11-23T19:54:35.649Z,3.47
2022-11-23T19:57:02.775Z,3.80
2022-11-23T19:59:29.868Z,4.50
2022-11-23T20:01:56.966Z,4.00
2022-11-23T20:04:23.619Z,3.90
2022-11-23T20:06:50.383Z,4.00
2022-11-23T20:09:19.108Z,3.57
2022-11-23T20:11:50.577Z,3.60
2022-11-23T20:14:18.368Z,3.80
2022-11-23T20:16:45.425Z,3.57
2022-11-23T20:19:12.366Z,3.77
2022-11-23T20:21:39.526Z,3.73
2022-11-23T20:24:10.771Z,4.40
2022-11-23T20:26:38.217Z,4.43
2022-11-23T20:29:06.317Z,4.00
2022-11-23T20:31:33.937Z,3.67
2022-11-23T20:34:04.120Z,4.20
2022-11-23T20:36:35.126Z,4.20
2022-11-23T20:39:04.660Z,3.47
2022-11-23T20:41:34.320Z,4.40
2022-11-23T20:44:02.143Z,4.20
2022-11-23T20:47:01.236Z,4.37
2022-11-23T20:49:18.271Z,4.33
2022-11-23T20:51:44.934Z,4.30
2022-11-23T20:54:12.222Z,4.60
2022-11-23T20:56:39.305Z,4.17
2022-11-23T20:59:06.442Z,4.50
2022-11-23T21:01:33.301Z,4.27
2022-11-23T21:04:00.227Z,4.97
2022-11-23T21:06:28.192Z,5.77
2022-11-23T21:08:55.104Z,4.73
2022-11-23T21:11:40.944Z,4.77
2022-11-23T21:14:17.764Z,5.23
2022-11-23T21:16:56.059Z,4.67
2022-11-23T21:19:34.292Z,5.43
2022-11-23T21:22:09.510Z,5.70
2022-11-23T21:24:37.039Z,4.13
2022-11-23T21:27:05.289Z,4.87
2022-11-23T21:29:32.400Z,5.07
2022-11-23T21:31:59.228Z,5.37
2022-11-23T21:34:27.855Z,4.70
2022-11-23T21:36:55.621Z,4.30
2022-11-23T21:39:23.068Z,4.40
2022-11-23T21:41:51.587Z,4.87
2022-11-23T21:44:18.678Z,5.63
2022-11-23T21:46:45.640Z,5.33
2022-11-23T21:49:12.886Z,5.00
2022-11-23T21:51:42.310Z,5.00
2022-11-23T21:54:13.734Z,4.70
2022-11-23T21:56:41.264Z,4.53
2022-11-23T21:59:08.456Z,5.23
2022-11-23T22:01:36.499Z,4.80
2022-11-23T22:04:09.816Z,4.53
2022-11-23T22:06:37.514Z,5.00
2022-11-23T22:09:06.420Z,4.67
2022-11-23T22:11:35.008Z,5.57
2022-11-23T22:14:05.130Z,5.20
2022-11-23T22:16:34.435Z,5.30
2022-11-23T22:19:01.609Z,4.90
2022-11-23T22:21:32.577Z,4.80
2022-11-23T22:24:00.010Z,5.30
2022-11-23T22:26:27.761Z,5.27
2022-11-23T22:28:55.741Z,4.30
2022-11-23T22:31:25.970Z,5.10
2022-11-23T22:33:53.631Z,5.00
2022-11-23T22:36:24.714Z,4.57
2022-11-23T22:39:02.739Z,4.30
2022-11-23T22:41:33.314Z,4.67
2022-11-23T22:44:00.111Z,4.50
2022-11-23T22:46:27.247Z,4.67
2022-11-23T22:48:54.541Z,4.87
2022-11-23T22:51:23.278Z,5.20
2022-11-23T22:53:57.978Z,4.80
2022-11-23T22:56:25.675Z,4.00
2022-11-23T22:58:52.855Z,4.27
2022-11-23T23:01:21.955Z,5.17
2022-11-23T23:03:49.225Z,4.87
2022-11-23T23:06:21.440Z,4.50
2022-11-23T23:08:48.940Z,5.07
2022-11-23T23:11:16.331Z,4.50
2022-11-23T23:13:43.113Z,3.93
2022-11-23T23:16:13.746Z,4.73
2022-11-23T23:18:41.412Z,4.73
2022-11-23T23:21:14.391Z,4.57
2022-11-23T23:23:46.332Z,4.27
2022-11-23T23:26:14.559Z,4.90
2022-11-23T23:28:41.623Z,4.63
2022-11-23T23:31:10.831Z,4.73
2022-11-23T23:33:38.243Z,4.77
2022-11-23T23:36:05.432Z,5.70
2022-11-23T23:38:32.866Z,5.33
2022-11-23T23:41:00.428Z,5.50
2022-11-23T23:43:28.133Z,5.77
2022-11-23T23:45:59.933Z,5.37
2022-11-23T23:48:31.039Z,5.17
2022-11-23T23:50:58.103Z,5.63
2022-11-23T23:53:25.175Z,5.63
2022-11-23T23:55:59.953Z,5.70
2022-11-23T23:58:27.001Z,5.33
